createdAt,value
2017-10-06T00:00:08.677Z,11.20
2017-10-06T00:02:36.924Z,11.20
2017-10-06T00:05:05.175Z,11.10
2017-10-06T00:07:33.518Z,11.00
2017-10-06T00:10:01.780Z,11.00
2017-10-06T00:12:30.022Z,11.10
2017-10-06T00:14:58.306Z,11.10
2017-10-06T00:17:26.556Z,11.10
2017-10-06T00:19:54.798Z,11.00
2017-10-06T00:22:23.463Z,11.00
2017-10-06T00:24:51.715Z,10.90
2017-10-06T00:27:19.967Z,10.90
2017-10-06T00:29:48.385Z,10.90
2017-10-06T00:32:16.938Z,10.90
2017-10-06T00:34:45.951Z,10.80
2017-10-06T00:37:14.226Z,10.80
2017-10-06T00:39:42.474Z,10.80
2017-10-06T00:42:11.478Z,10.80
2017-10-06T00:44:40.101Z,10.80
2017-10-06T00:47:08.350Z,10.90
2017-10-06T00:49:36.596Z,10.80
2017-10-06T00:52:04.875Z,10.80
2017-10-06T00:54:33.121Z,10.70
2017-10-06T00:57:01.370Z,10.60
2017-10-06T00:59:29.646Z,10.60
2017-10-06T01:01:58.070Z,10.60
2017-10-06T01:04:26.328Z,10.70
2017-10-06T01:06:54.902Z,10.70
2017-10-06T01:09:23.159Z,10.70
2017-10-06T01:11:51.403Z,10.70
2017-10-06T01:14:19.679Z,10.60
2017-10-06T01:16:48.690Z,10.60
2017-10-06T01:19:16.942Z,10.60
2017-10-06T01:21:45.215Z,10.60
2017-10-06T01:24:13.454Z,10.50
2017-10-06T01:26:41.704Z,10.50
2017-10-06T01:29:10.147Z,10.50
2017-10-06T01:31:38.623Z,10.50
2017-10-06T01:34:07.059Z,10.40
2017-10-06T01:36:35.330Z,10.40
2017-10-06T01:39:03.574Z,10.40
2017-10-06T01:41:31.823Z,10.30
2017-10-06T01:44:00.095Z,10.30
2017-10-06T01:46:28.342Z,10.20
2017-10-06T01:48:56.589Z,10.20
2017-10-06T01:51:25.007Z,10.10
2017-10-06T01:53:53.250Z,9.90
2017-10-06T01:56:22.412Z,9.90
2017-10-06T01:58:50.686Z,9.90
2017-10-06T02:01:18.952Z,9.90
2017-10-06T02:03:47.174Z,10.00
2017-10-06T02:06:16.209Z,10.00
2017-10-06T02:08:44.461Z,10.00
2017-10-06T02:11:12.707Z,10.10
2017-10-06T02:13:42.118Z,10.10
2017-10-06T02:16:10.371Z,10.00
2017-10-06T02:18:38.614Z,10.10
2017-10-06T02:21:06.894Z,10.00
2017-10-06T02:23:35.134Z,10.10
2017-10-06T02:26:03.381Z,10.10
2017-10-06T02:28:31.651Z,10.10
2017-10-06T02:30:59.898Z,10.10
2017-10-06T02:33:28.145Z,10.10
2017-10-06T02:35:56.752Z,10.00
2017-10-06T02:38:25.003Z,10.00
2017-10-06T02:40:54.008Z,9.90
2017-10-06T02:43:22.278Z,9.90
2017-10-06T02:45:50.514Z,9.80
2017-10-06T02:48:18.752Z,9.80
2017-10-06T02:50:47.010Z,9.90
2017-10-06T02:53:15.255Z,9.90
2017-10-06T02:55:43.506Z,10.00
2017-10-06T02:58:12.048Z,10.20
2017-10-06T03:00:40.294Z,10.30
2017-10-06T03:03:09.297Z,10.30
2017-10-06T03:05:38.345Z,10.30
2017-10-06T03:08:06.580Z,10.30
2017-10-06T03:10:34.826Z,10.20
2017-10-06T03:13:03.102Z,10.30
2017-10-06T03:15:31.349Z,10.30
2017-10-06T03:17:59.604Z,10.30
2017-10-06T03:20:28.307Z,10.30
2017-10-06T03:22:56.559Z,10.30
2017-10-06T03:25:24.790Z,10.30
2017-10-06T03:27:53.062Z,10.30
2017-10-06T03:30:21.431Z,10.40
2017-10-06T03:32:49.683Z,10.30
2017-10-06T03:35:19.144Z,10.20
2017-10-06T03:37:48.182Z,10.10
2017-10-06T03:40:16.482Z,10.10
2017-10-06T03:42:45.246Z,10.10
2017-10-06T03:45:13.487Z,10.00
2017-10-06T03:47:41.726Z,10.00
2017-10-06T03:50:09.994Z,10.00
2017-10-06T03:52:38.234Z,10.00
2017-10-06T03:55:06.480Z,9.80
2017-10-06T03:57:35.507Z,9.90
2017-10-06T04:00:03.743Z,9.80
2017-10-06T04:02:32.210Z,9.70
2017-10-06T04:05:00.963Z,9.70
2017-10-06T04:07:29.202Z,9.70
2017-10-06T04:09:57.434Z,9.60
2017-10-06T04:12:25.754Z,9.50
2017-10-06T04:14:53.986Z,9.50
2017-10-06T04:17:22.222Z,9.40
2017-10-06T04:19:50.487Z,9.30
2017-10-06T04:22:18.723Z,9.30
2017-10-06T04:24:46.966Z,9.30
2017-10-06T04:27:15.299Z,9.30
2017-10-06T04:29:43.651Z,9.20
2017-10-06T04:32:11.882Z,9.20
2017-10-06T04:34:40.279Z,9.30
2017-10-06T04:37:08.522Z,9.30
2017-10-06T04:39:37.026Z,9.10
2017-10-06T04:42:05.298Z,9.10
2017-10-06T04:44:33.617Z,9.10
2017-10-06T04:47:01.842Z,9.00
2017-10-06T04:49:31.534Z,9.20
2017-10-06T04:51:59.777Z,9.10
2017-10-06T04:54:28.011Z,9.20
2017-10-06T04:56:56.270Z,9.30
2017-10-06T04:59:25.272Z,9.50
2017-10-06T05:01:54.295Z,9.50
2017-10-06T05:04:22.563Z,9.40
2017-10-06T05:06:50.810Z,9.50
2017-10-06T05:09:19.047Z,9.70
2017-10-06T05:11:47.391Z,9.70
2017-10-06T05:14:15.650Z,9.50
2017-10-06T05:16:43.983Z,9.50
2017-10-06T05:19:12.233Z,9.50
2017-10-06T05:21:40.471Z,9.40
2017-10-06T05:24:08.719Z,9.30
2017-10-06T05:26:36.988Z,9.30
2017-10-06T05:29:05.227Z,9.30
2017-10-06T05:31:33.479Z,9.40
2017-10-06T05:34:02.135Z,9.40
2017-10-06T05:36:30.366Z,9.50
2017-10-06T05:38:58.609Z,9.60
2017-10-06T05:41:27.426Z,9.70
2017-10-06T05:43:55.671Z,9.80
2017-10-06T05:46:23.906Z,9.80
2017-10-06T05:48:52.163Z,9.80
2017-10-06T05:51:20.407Z,9.80
2017-10-06T05:53:48.643Z,9.80
2017-10-06T05:56:16.973Z,9.80
2017-10-06T05:58:45.227Z,9.70
2017-10-06T06:01:13.464Z,9.70
2017-10-06T06:03:41.763Z,9.60
2017-10-06T06:06:10.010Z,9.60
2017-10-06T06:08:38.249Z,9.70
2017-10-06T06:11:06.514Z,9.80
2017-10-06T06:13:34.755Z,9.70
2017-10-06T06:16:02.990Z,9.70
2017-10-06T06:18:31.551Z,9.90
2017-10-06T06:21:00.566Z,9.90
2017-10-06T06:23:28.798Z,9.90
2017-10-06T06:25:57.056Z,9.90
2017-10-06T06:28:25.298Z,10.00
2017-10-06T06:30:53.538Z,10.00
2017-10-06T06:33:21.806Z,10.00
2017-10-06T06:35:50.046Z,10.10
2017-10-06T06:38:18.290Z,10.10
2017-10-06T06:40:47.653Z,10.10
2017-10-06T06:43:16.224Z,10.10
2017-10-06T06:45:44.479Z,10.10
2017-10-06T06:48:12.742Z,10.20
2017-10-06T06:50:41.007Z,10.30
2017-10-06T06:53:10.019Z,10.40
2017-10-06T06:55:38.403Z,10.40
2017-10-06T06:58:06.653Z,10.40
2017-10-06T07:00:35.089Z,10.50
2017-10-06T07:03:03.660Z,10.50
2017-10-06T07:05:31.898Z,10.50
2017-10-06T07:08:00.146Z,10.40
2017-10-06T07:10:28.418Z,10.40
2017-10-06T07:12:56.698Z,10.50
2017-10-06T07:15:24.943Z,10.60
2017-10-06T07:17:53.213Z,10.60
2017-10-06T07:20:21.519Z,10.70
2017-10-06T07:22:49.766Z,10.80
2017-10-06T07:25:18.454Z,10.90
2017-10-06T07:27:46.693Z,10.90
2017-10-06T07:30:14.939Z,11.00
2017-10-06T07:32:43.203Z,11.10
2017-10-06T07:35:11.579Z,11.20
2017-10-06T07:37:39.863Z,11.20
2017-10-06T07:40:08.112Z,11.20
2017-10-06T07:42:36.354Z,11.10
2017-10-06T07:45:04.834Z,11.10
2017-10-06T07:47:34.179Z,11.10
2017-10-06T07:50:02.428Z,11.10
2017-10-06T07:52:30.670Z,11.00
2017-10-06T07:54:58.951Z,11.00
2017-10-06T07:57:27.957Z,11.10
2017-10-06T07:59:56.969Z,11.10
2017-10-06T08:02:25.320Z,11.10
2017-10-06T08:04:54.402Z,11.10
2017-10-06T08:07:22.640Z,11.10
2017-10-06T08:09:51.111Z,11.10
2017-10-06T08:12:19.358Z,11.10
2017-10-06T08:14:47.615Z,11.20
2017-10-06T08:17:15.878Z,11.20
2017-10-06T08:19:44.126Z,11.20
2017-10-06T08:22:12.375Z,11.30
2017-10-06T08:24:41.410Z,11.30
2017-10-06T08:27:09.651Z,11.30
2017-10-06T08:29:37.894Z,11.40
2017-10-06T08:32:06.219Z,11.40
2017-10-06T08:34:34.470Z,11.40
2017-10-06T08:37:02.710Z,11.30
2017-10-06T08:39:30.982Z,11.30
2017-10-06T08:41:59.230Z,11.40
2017-10-06T08:44:27.478Z,11.40
2017-10-06T08:46:56.634Z,11.40
2017-10-06T08:49:24.885Z,11.40
2017-10-06T08:51:53.174Z,11.40
2017-10-06T08:54:21.718Z,11.30
2017-10-06T08:56:49.958Z,11.40
2017-10-06T08:59:18.213Z,11.40
2017-10-06T09:01:46.470Z,11.30
2017-10-06T09:04:14.710Z,11.40
2017-10-06T09:06:42.954Z,11.40
2017-10-06T09:09:11.230Z,11.40
2017-10-06T09:11:39.482Z,11.40
2017-10-06T09:14:07.734Z,11.30
2017-10-06T09:16:36.202Z,11.30
2017-10-06T09:19:04.474Z,11.30
2017-10-06T09:21:33.486Z,11.30
2017-10-06T09:24:01.763Z,11.30
2017-10-06T09:26:30.002Z,11.40
2017-10-06T09:28:58.250Z,11.40
2017-10-06T09:31:26.519Z,11.50
2017-10-06T09:33:54.792Z,11.70
2017-10-06T09:36:23.052Z,11.70
2017-10-06T09:38:51.811Z,11.70
2017-10-06T09:41:21.386Z,11.80
2017-10-06T09:43:49.626Z,11.70
2017-10-06T09:46:17.894Z,11.80
2017-10-06T09:48:47.443Z,11.90
2017-10-06T09:51:15.683Z,12.00
2017-10-06T09:53:43.954Z,12.10
2017-10-06T09:56:12.203Z,12.30
2017-10-06T09:58:40.454Z,12.40
2017-10-06T10:01:08.911Z,12.60
2017-10-06T10:03:37.168Z,12.70
2017-10-06T10:06:05.414Z,12.90
2017-10-06T10:08:33.674Z,13.30
2017-10-06T10:11:01.915Z,13.80
2017-10-06T10:13:30.158Z,14.10
2017-10-06T10:15:59.638Z,14.30
2017-10-06T10:18:28.658Z,14.40
2017-10-06T10:20:56.902Z,14.30
2017-10-06T10:23:25.431Z,14.50
2017-10-06T10:25:53.686Z,14.60
2017-10-06T10:28:22.754Z,14.60
2017-10-06T10:30:51.173Z,14.60
2017-10-06T10:33:20.174Z,14.70
2017-10-06T10:35:48.418Z,14.70
2017-10-06T10:38:16.700Z,14.70
2017-10-06T10:40:44.942Z,14.70
2017-10-06T10:43:13.187Z,14.70
2017-10-06T10:45:41.620Z,14.30
2017-10-06T10:48:09.868Z,14.00
2017-10-06T10:50:38.499Z,13.70
2017-10-06T10:53:07.523Z,13.30
2017-10-06T10:55:35.768Z,13.30
2017-10-06T10:58:04.015Z,13.30
2017-10-06T11:00:32.286Z,13.20
2017-10-06T11:03:01.587Z,13.10
2017-10-06T11:05:29.831Z,13.00
2017-10-06T11:07:58.422Z,13.10
2017-10-06T11:10:26.664Z,13.10
2017-10-06T11:12:55.674Z,13.20
2017-10-06T11:15:23.950Z,13.20
2017-10-06T11:17:52.182Z,13.30
2017-10-06T11:20:20.429Z,14.10
2017-10-06T11:22:48.696Z,14.80
2017-10-06T11:25:16.939Z,15.10
2017-10-06T11:27:45.184Z,15.20
2017-10-06T11:30:13.558Z,14.90
2017-10-06T11:32:41.813Z,14.70
2017-10-06T11:35:10.070Z,14.60
2017-10-06T11:37:38.346Z,14.30
2017-10-06T11:40:06.590Z,14.00
2017-10-06T11:42:34.937Z,13.90
2017-10-06T11:45:03.195Z,13.80
2017-10-06T11:47:31.430Z,13.80
2017-10-06T11:49:59.674Z,13.70
2017-10-06T11:52:28.640Z,14.00
2017-10-06T11:54:56.882Z,15.10
2017-10-06T11:57:25.123Z,16.20
2017-10-06T11:59:56.486Z,16.80
2017-10-06T12:02:25.494Z,17.50
2017-10-06T12:04:54.502Z,17.50
2017-10-06T12:07:22.778Z,17.40
2017-10-06T12:09:51.194Z,17.20
2017-10-06T12:12:19.442Z,17.40
2017-10-06T12:14:48.038Z,17.00
2017-10-06T12:17:16.278Z,16.40
2017-10-06T12:19:44.610Z,15.80
2017-10-06T12:22:12.912Z,15.40
2017-10-06T12:24:41.156Z,15.20
2017-10-06T12:27:09.399Z,15.40
2017-10-06T12:29:37.674Z,15.40
2017-10-06T12:32:06.698Z,15.90
2017-10-06T12:34:34.943Z,15.90
2017-10-06T12:37:03.591Z,15.60
2017-10-06T12:39:31.907Z,15.50
2017-10-06T12:42:00.146Z,15.50
2017-10-06T12:44:28.418Z,15.40
2017-10-06T12:46:56.865Z,15.20
2017-10-06T12:49:25.093Z,15.20
2017-10-06T12:51:54.126Z,15.60
2017-10-06T12:54:22.570Z,15.60
2017-10-06T12:56:50.823Z,16.70
2017-10-06T12:59:19.180Z,17.90
2017-10-06T13:01:47.433Z,18.20
2017-10-06T13:04:15.859Z,18.10
2017-10-06T13:06:44.131Z,17.80
2017-10-06T13:09:12.374Z,17.30
2017-10-06T13:11:40.618Z,16.90
2017-10-06T13:14:09.653Z,16.60
2017-10-06T13:16:37.912Z,16.60
2017-10-06T13:19:06.162Z,16.40
2017-10-06T13:21:35.262Z,16.10
2017-10-06T13:24:03.506Z,16.10
2017-10-06T13:26:31.750Z,16.00
2017-10-06T13:29:00.092Z,15.70
2017-10-06T13:31:28.320Z,15.80
2017-10-06T13:33:56.666Z,15.80
2017-10-06T13:36:24.933Z,15.70
2017-10-06T13:38:53.178Z,15.60
2017-10-06T13:41:21.425Z,15.70
2017-10-06T13:43:50.320Z,15.90
2017-10-06T13:46:19.527Z,16.00
2017-10-06T13:48:47.914Z,15.90
2017-10-06T13:51:16.186Z,15.70
2017-10-06T13:53:44.974Z,16.00
2017-10-06T13:56:13.350Z,16.30
2017-10-06T13:58:41.659Z,16.10
2017-10-06T14:01:09.930Z,16.00
2017-10-06T14:03:38.187Z,15.80
2017-10-06T14:06:09.715Z,15.60
2017-10-06T14:08:37.967Z,15.40
2017-10-06T14:11:06.223Z,15.10
2017-10-06T14:13:34.624Z,14.90
2017-10-06T14:16:03.620Z,14.60
2017-10-06T14:18:31.870Z,14.60
2017-10-06T14:21:00.908Z,14.40
2017-10-06T14:23:29.160Z,14.40
2017-10-06T14:25:57.407Z,14.40
2017-10-06T14:28:25.743Z,14.30
2017-10-06T14:30:53.982Z,14.20
2017-10-06T14:33:22.242Z,14.10
2017-10-06T14:35:50.557Z,14.70
2017-10-06T14:38:18.868Z,15.00
2017-10-06T14:40:47.157Z,14.90
2017-10-06T14:43:19.350Z,14.50
2017-10-06T14:45:48.411Z,14.00
2017-10-06T14:48:16.645Z,14.00
2017-10-06T14:50:44.970Z,14.00
2017-10-06T14:53:13.346Z,13.90
2017-10-06T14:55:43.680Z,14.20
2017-10-06T14:58:11.963Z,14.20
2017-10-06T15:00:40.203Z,14.10
2017-10-06T15:03:08.501Z,14.10
2017-10-06T15:05:36.930Z,14.10
2017-10-06T15:08:05.270Z,14.00
2017-10-06T15:10:33.580Z,13.90
2017-10-06T15:13:01.922Z,13.90
2017-10-06T15:15:31.320Z,13.90
2017-10-06T15:17:59.570Z,13.80
2017-10-06T15:20:28.463Z,13.70
2017-10-06T15:22:56.718Z,13.60
2017-10-06T15:25:24.963Z,13.60
2017-10-06T15:27:53.994Z,13.50
2017-10-06T15:30:22.308Z,13.50
2017-10-06T15:32:50.545Z,13.60
2017-10-06T15:35:18.897Z,13.60
2017-10-06T15:37:47.954Z,13.60
2017-10-06T15:40:16.203Z,13.60
2017-10-06T15:42:44.475Z,13.60
2017-10-06T15:45:12.758Z,13.50
2017-10-06T15:47:42.091Z,13.50
2017-10-06T15:50:10.355Z,13.50
2017-10-06T15:52:38.598Z,13.50
2017-10-06T15:55:07.265Z,13.40
2017-10-06T15:57:36.606Z,13.20
2017-10-06T16:00:04.863Z,13.20
2017-10-06T16:02:33.134Z,13.20
2017-10-06T16:05:01.418Z,13.20
2017-10-06T16:07:29.666Z,13.20
2017-10-06T16:09:57.935Z,13.10
2017-10-06T16:12:26.208Z,13.10
2017-10-06T16:14:54.580Z,13.00
2017-10-06T16:17:23.863Z,13.00
2017-10-06T16:19:52.646Z,13.00
2017-10-06T16:22:20.887Z,13.00
2017-10-06T16:24:49.318Z,13.00
2017-10-06T16:27:17.718Z,12.90
2017-10-06T16:29:47.396Z,12.90
2017-10-06T16:32:15.687Z,12.90
2017-10-06T16:34:44.031Z,12.90
2017-10-06T16:37:12.442Z,12.90
2017-10-06T16:39:41.015Z,12.90
2017-10-06T16:42:09.391Z,12.90
2017-10-06T16:44:37.614Z,12.90
2017-10-06T16:47:07.800Z,12.90
2017-10-06T16:49:36.218Z,12.90
2017-10-06T16:52:05.366Z,12.90
2017-10-06T16:54:33.603Z,12.90
2017-10-06T16:57:01.870Z,12.90
2017-10-06T16:59:30.882Z,12.90
2017-10-06T17:01:59.222Z,12.90
2017-10-06T17:04:27.558Z,12.90
2017-10-06T17:06:55.806Z,12.90
2017-10-06T17:09:24.197Z,12.80
2017-10-06T17:11:52.447Z,12.90
2017-10-06T17:14:20.693Z,12.80
2017-10-06T17:16:48.949Z,12.80
2017-10-06T17:19:17.382Z,12.80
2017-10-06T17:21:46.682Z,12.80
2017-10-06T17:24:15.837Z,12.80
2017-10-06T17:26:44.715Z,12.70
2017-10-06T17:29:13.014Z,12.80
2017-10-06T17:31:41.272Z,12.80
2017-10-06T17:34:09.548Z,12.80
2017-10-06T17:36:37.915Z,12.80
2017-10-06T17:39:06.171Z,12.80
2017-10-06T17:41:34.467Z,12.70
2017-10-06T17:44:02.706Z,12.70
2017-10-06T17:46:31.753Z,12.60
2017-10-06T17:49:00.097Z,12.60
2017-10-06T17:51:28.557Z,12.50
2017-10-06T17:53:56.855Z,12.40
2017-10-06T17:56:25.683Z,12.30
2017-10-06T17:58:53.919Z,12.30
2017-10-06T18:01:22.166Z,12.20
2017-10-06T18:03:50.435Z,12.10
2017-10-06T18:06:18.687Z,12.20
2017-10-06T18:08:46.934Z,12.20
2017-10-06T18:11:15.275Z,12.20
2017-10-06T18:13:44.279Z,12.00
2017-10-06T18:16:12.535Z,12.00
2017-10-06T18:18:41.034Z,11.90
2017-10-06T18:21:10.050Z,11.70
2017-10-06T18:23:38.316Z,11.60
2017-10-06T18:26:07.375Z,11.80
2017-10-06T18:28:35.632Z,11.80
2017-10-06T18:31:03.883Z,11.90
2017-10-06T18:33:32.487Z,12.00
2017-10-06T18:36:00.734Z,11.90
2017-10-06T18:38:29.166Z,12.00
2017-10-06T18:40:58.493Z,11.90
2017-10-06T18:43:27.508Z,11.90
2017-10-06T18:45:56.510Z,11.90
2017-10-06T18:48:25.774Z,11.90
2017-10-06T18:50:54.810Z,11.80
2017-10-06T18:53:23.060Z,11.80
2017-10-06T18:55:51.578Z,11.80
2017-10-06T18:58:19.960Z,11.80
2017-10-06T19:00:48.193Z,11.90
2017-10-06T19:03:16.458Z,11.90
2017-10-06T19:05:44.716Z,12.00
2017-10-06T19:08:12.962Z,12.00
2017-10-06T19:10:42.426Z,12.00
2017-10-06T19:13:11.452Z,11.80
2017-10-06T19:15:39.768Z,11.80
2017-10-06T19:18:08.263Z,11.70
2017-10-06T19:20:36.718Z,11.70
2017-10-06T19:23:04.952Z,11.70
2017-10-06T19:25:38.535Z,11.80
2017-10-06T19:28:07.538Z,11.70
2017-10-06T19:30:36.550Z,11.70
2017-10-06T19:33:04.821Z,11.70
2017-10-06T19:35:37.260Z,11.70
2017-10-06T19:38:05.690Z,11.80
2017-10-06T19:40:33.950Z,11.80
2017-10-06T19:43:02.399Z,11.80
2017-10-06T19:45:30.834Z,11.90
2017-10-06T19:47:59.082Z,11.90
2017-10-06T19:50:28.099Z,12.00
2017-10-06T19:52:56.547Z,11.90
2017-10-06T19:55:25.566Z,12.00
2017-10-06T19:57:53.822Z,12.00
2017-10-06T20:00:22.673Z,12.00
2017-10-06T20:02:50.907Z,12.00
2017-10-06T20:05:19.166Z,12.10
2017-10-06T20:07:47.437Z,12.10
2017-10-06T20:10:16.454Z,12.10
2017-10-06T20:12:44.709Z,12.10
2017-10-06T20:15:12.981Z,12.00
2017-10-06T20:17:41.236Z,11.80
2017-10-06T20:20:09.479Z,11.90
2017-10-06T20:22:38.371Z,11.90
2017-10-06T20:25:06.612Z,11.90
2017-10-06T20:27:34.854Z,11.90
2017-10-06T20:30:04.784Z,11.90
2017-10-06T20:32:33.022Z,11.90
2017-10-06T20:35:01.284Z,12.00
2017-10-06T20:37:29.548Z,11.90
2017-10-06T20:39:57.790Z,12.00
2017-10-06T20:42:26.043Z,12.00
2017-10-06T20:44:54.502Z,12.00
2017-10-06T20:47:22.786Z,12.00
2017-10-06T20:49:51.091Z,12.00
2017-10-06T20:52:19.451Z,12.00
2017-10-06T20:54:47.696Z,12.00
2017-10-06T20:57:15.931Z,12.10
2017-10-06T20:59:46.326Z,12.10
2017-10-06T21:02:14.663Z,12.10
2017-10-06T21:04:42.931Z,12.10
2017-10-06T21:07:12.042Z,12.20
2017-10-06T21:09:40.286Z,12.20
2017-10-06T21:12:09.298Z,12.20
2017-10-06T21:14:38.330Z,12.20
2017-10-06T21:17:06.575Z,12.20
2017-10-06T21:19:34.819Z,12.30
2017-10-06T21:22:03.116Z,12.30
2017-10-06T21:24:32.130Z,12.30
2017-10-06T21:27:00.525Z,12.30
2017-10-06T21:29:29.070Z,12.20
2017-10-06T21:31:57.317Z,12.20
2017-10-06T21:34:25.551Z,12.20
2017-10-06T21:36:53.833Z,12.20
2017-10-06T21:39:22.066Z,12.20
2017-10-06T21:41:51.072Z,12.20
2017-10-06T21:44:20.102Z,12.20
2017-10-06T21:46:48.442Z,12.20
2017-10-06T21:49:17.460Z,12.20
2017-10-06T21:51:46.043Z,12.20
2017-10-06T21:54:14.287Z,12.20
2017-10-06T21:56:42.527Z,12.20
2017-10-06T21:59:10.790Z,12.30
2017-10-06T22:01:39.044Z,12.30
2017-10-06T22:04:08.327Z,12.20
2017-10-06T22:06:37.360Z,12.20
2017-10-06T22:09:05.722Z,12.20
2017-10-06T22:11:33.966Z,12.20
2017-10-06T22:14:02.508Z,12.20
2017-10-06T22:16:30.754Z,12.20
2017-10-06T22:18:59.002Z,12.10
2017-10-06T22:21:28.034Z,12.10
2017-10-06T22:23:56.282Z,12.10
2017-10-06T22:26:25.294Z,12.00
2017-10-06T22:28:53.581Z,12.00
2017-10-06T22:31:21.826Z,12.00
2017-10-06T22:33:50.075Z,12.00
2017-10-06T22:36:18.515Z,12.00
2017-10-06T22:38:46.758Z,12.00
2017-10-06T22:41:14.998Z,11.90
2017-10-06T22:43:43.294Z,11.90
2017-10-06T22:46:11.541Z,11.90
2017-10-06T22:48:39.793Z,11.90
2017-10-06T22:51:08.138Z,11.80
2017-10-06T22:53:37.142Z,11.90
2017-10-06T22:56:06.150Z,11.90
2017-10-06T22:58:34.651Z,11.90
2017-10-06T23:01:02.890Z,11.80
2017-10-06T23:03:31.903Z,11.80
2017-10-06T23:06:00.594Z,11.80
2017-10-06T23:08:28.837Z,11.80
2017-10-06T23:10:57.081Z,11.80
2017-10-06T23:13:25.343Z,11.80
2017-10-06T23:15:53.598Z,11.80
2017-10-06T23:18:21.848Z,11.70
2017-10-06T23:20:51.193Z,11.70
2017-10-06T23:23:19.432Z,11.70
2017-10-06T23:25:47.768Z,11.70
2017-10-06T23:28:16.021Z,11.70
2017-10-06T23:30:44.274Z,11.60
2017-10-06T23:33:12.526Z,11.60
2017-10-06T23:35:40.796Z,11.60
2017-10-06T23:38:09.050Z,11.60
2017-10-06T23:40:37.285Z,11.70
2017-10-06T23:43:05.754Z,11.60
2017-10-06T23:45:34.761Z,11.60
2017-10-06T23:48:03.007Z,11.60
2017-10-06T23:50:31.279Z,11.60
2017-10-06T23:52:59.575Z,11.60
2017-10-06T23:55:28.586Z,11.60
2017-10-06T23:57:56.859Z,11.60
